Time;durP1;ratioP1;P1;durP2;ratioP2;P2;SDS_P1;SDS_P2;PMS_P1;PMS_P2;Temp;Humidity;BMP_temperature;BMP_pressure;BME280_temperature;BME280_humidity;BME280_pressure;Samples;Min_cycle;Max_cycle;Signal;HPM_P1;HPM_P2
2021/04/01 00:00:35;;;;;;;9.93;4.50;;;10.60;99.90;;;;;;5031630;28;20438;-90
2021/04/01 00:03:03;;;;;;;9.77;5.43;;;10.70;99.90;;;;;;5032537;28;20464;-87
2021/04/01 00:05:30;;;;;;;6.33;4.70;;;;;;;;;;5032866;28;20439;-89
2021/04/01 00:07:57;;;;;;;7.10;5.30;;;;;;;;;;5032630;28;20444;-88
2021/04/01 00:10:28;;;;;;;7.80;4.80;;;10.70;99.90;;;;;;5032603;28;20443;-89
2021/04/01 00:12:54;;;;;;;7.77;4.70;;;;;;;;;;5032370;28;20474;-89
2021/04/01 00:15:21;;;;;;;7.20;4.80;;;;;;;;;;5031840;28;20439;-89
2021/04/01 00:17:48;;;;;;;7.77;4.90;;;;;;;;;;5034021;28;20451;-88
2021/04/01 00:20:17;;;;;;;8.43;5.00;;;10.80;99.90;;;;;;5031898;28;20448;-88
2021/04/01 00:22:44;;;;;;;8.40;4.97;;;10.70;99.90;;;;;;4997633;28;20502;-89
2021/04/01 00:25:13;;;;;;;7.80;4.77;;;10.70;99.90;;;;;;5032646;28;20517;-88
2021/04/01 00:27:40;;;;;;;6.43;4.40;;;;;;;;;;5030926;28;20455;-89
2021/04/01 00:30:08;;;;;;;7.30;4.90;;;10.60;99.90;;;;;;5035990;28;20526;-89
2021/04/01 00:32:35;;;;;;;8.47;4.43;;;;;;;;;;5036074;28;20461;-88
2021/04/01 00:35:02;;;;;;;7.73;4.70;;;;;;;;;;5036446;28;20809;-90
2021/04/01 00:37:31;;;;;;;9.90;4.90;;;;;;;;;;5035807;28;20949;-88
2021/04/01 00:39:57;;;;;;;6.90;4.50;;;;;;;;;;5036304;28;20447;-88
2021/04/01 00:42:24;;;;;;;8.20;4.80;;;;;;;;;;5036252;28;20946;-88
2021/04/01 00:44:50;;;;;;;14.23;4.80;;;;;;;;;;5035481;28;20431;-90
2021/04/01 00:47:17;;;;;;;7.53;4.73;;;;;;;;;;5035375;28;20439;-89
2021/04/01 00:49:44;;;;;;;6.30;4.40;;;;;;;;;;5035645;28;20447;-87
2021/04/01 00:52:10;;;;;;;8.10;4.43;;;;;;;;;;5035499;28;20444;-89
2021/04/01 00:54:38;;;;;;;5.30;4.30;;;;;;;;;;5035641;28;20513;-87
2021/04/01 00:57:06;;;;;;;5.27;4.20;;;10.20;99.90;;;;;;5035829;28;20451;-89
2021/04/01 00:59:32;;;;;;;8.67;4.47;;;;;;;;;;5034729;28;20446;-88
2021/04/01 01:02:02;;;;;;;6.17;3.83;;;;;;;;;;5035252;28;20549;-88
2021/04/01 01:04:30;;;;;;;8.03;4.10;;;10.10;99.90;;;;;;5035048;28;20525;-89
2021/04/01 01:06:56;;;;;;;8.50;4.17;;;;;;;;;;5035083;28;20934;-88
2021/04/01 01:09:23;;;;;;;6.10;4.27;;;10.00;99.90;;;;;;5035226;28;20889;-88
2021/04/01 01:11:51;;;;;;;7.63;4.17;;;10.00;99.90;;;;;;5034691;28;20456;-89
2021/04/01 01:14:17;;;;;;;6.13;4.07;;;;;;;;;;5034118;28;20447;-88
2021/04/01 01:16:44;;;;;;;11.33;4.23;;;;;;;;;;5035149;28;20458;-91
2021/04/01 01:19:12;;;;;;;7.20;4.23;;;9.80;99.90;;;;;;5034649;28;20463;-90
2021/04/01 01:21:39;;;;;;;8.67;4.57;;;;;;;;;;5034356;28;20495;-89
2021/04/01 01:24:11;;;;;;;6.97;4.00;;;9.90;99.90;;;;;;5035369;28;20458;-87
2021/04/01 01:26:39;;;;;;;7.30;4.27;;;9.80;99.90;;;;;;5035462;28;20462;-90
2021/04/01 01:29:05;;;;;;;10.63;4.60;;;9.60;99.90;;;;;;5034306;28;20480;-88
2021/04/01 01:31:32;;;;;;;5.97;4.47;;;9.60;99.90;;;;;;5035182;28;20436;-88
2021/04/01 01:33:58;;;;;;;4.63;3.97;;;9.50;99.90;;;;;;5034828;28;20451;-88
2021/04/01 01:36:24;;;;;;;6.30;4.20;;;9.60;99.90;;;;;;5034588;28;20447;-88
2021/04/01 01:38:51;;;;;;;6.70;4.17;;;;;;;;;;5034311;28;20459;-88
2021/04/01 01:41:18;;;;;;;6.43;4.40;;;9.70;99.90;;;;;;5034584;28;20486;-89
2021/04/01 01:43:45;;;;;;;6.30;3.97;;;9.50;99.90;;;;;;5033298;28;20450;-90
2021/04/01 01:46:11;;;;;;;6.10;4.60;;;;;;;;;;5035653;28;20514;-89
2021/04/01 01:48:38;;;;;;;4.70;4.07;;;9.40;99.90;;;;;;5034910;28;20428;-90
2021/04/01 01:51:04;;;;;;;6.73;3.93;;;;;;;;;;5034554;28;20450;-88
2021/04/01 01:53:31;;;;;;;4.37;3.97;;;9.50;99.90;;;;;;5034453;28;20458;-88
2021/04/01 01:55:57;;;;;;;6.23;3.93;;;9.40;99.90;;;;;;5034490;28;20537;-89
2021/04/01 01:58:25;;;;;;;7.40;3.60;;;8.60;99.90;;;;;;5034346;28;20517;-88
2021/04/01 02:00:54;;;;;;;8.30;4.53;;;9.30;99.90;;;;;;5033269;28;21041;-88
2021/04/01 02:03:23;;;;;;;5.07;4.27;;;9.50;99.90;;;;;;5034602;28;20887;-89
2021/04/01 02:05:49;;;;;;;7.47;3.90;;;;;;;;;;5034295;28;20439;-87
2021/04/01 02:08:16;;;;;;;5.40;3.80;;;9.30;99.90;;;;;;5034056;28;20466;-89
2021/04/01 02:10:44;;;;;;;7.80;4.43;;;9.10;99.90;;;;;;5034898;28;20574;-88
2021/04/01 02:13:11;;;;;;;8.20;4.10;;;9.10;99.90;;;;;;5031906;28;20955;-89
2021/04/01 02:15:40;;;;;;;7.63;4.87;;;9.20;99.90;;;;;;5033340;28;20828;-89
2021/04/01 02:18:08;;;;;;;7.07;4.33;;;8.60;99.90;;;;;;5034474;28;20452;-90
2021/04/01 02:20:40;;;;;;;8.60;3.53;;;9.10;99.90;;;;;;5034204;28;20482;-88
2021/04/01 02:23:08;;;;;;;9.07;4.70;;;9.10;99.90;;;;;;5034325;28;20542;-90
2021/04/01 02:25:34;;;;;;;5.90;4.10;;;8.90;99.90;;;;;;5034104;28;20444;-88
2021/04/01 02:28:01;;;;;;;9.00;3.93;;;8.80;99.90;;;;;;5033976;28;20443;-89
2021/04/01 02:30:27;;;;;;;8.03;4.57;;;9.00;99.90;;;;;;5033098;28;20463;-87
2021/04/01 02:32:55;;;;;;;8.10;5.03;;;8.30;99.90;;;;;;5035106;28;20489;-90
2021/04/01 02:35:21;;;;;;;5.87;4.60;;;9.00;99.90;;;;;;5034338;28;20541;-89
2021/04/01 02:37:48;;;;;;;4.90;3.70;;;;;;;;;;5033440;28;20442;-89
2021/04/01 02:40:15;;;;;;;8.80;3.60;;;8.70;99.90;;;;;;5033436;28;20448;-89
2021/04/01 02:42:42;;;;;;;7.00;4.27;;;8.80;99.90;;;;;;5030642;28;20549;-88
2021/04/01 02:45:10;;;;;;;5.60;4.53;;;9.30;99.90;;;;;;5032544;28;20443;-88
2021/04/01 02:47:37;;;;;;;4.50;4.00;;;9.30;99.90;;;;;;5035029;28;20455;-91
2021/04/01 02:50:06;;;;;;;8.50;5.13;;;8.60;99.90;;;;;;5033504;28;20447;-89
2021/04/01 02:52:32;;;;;;;6.70;3.93;;;8.60;99.90;;;;;;5033318;28;20442;-88
2021/04/01 02:54:59;;;;;;;6.83;4.47;;;8.80;99.90;;;;;;5033291;28;20443;-88
2021/04/01 02:57:25;;;;;;;6.30;4.43;;;8.70;99.90;;;;;;5033162;28;20466;-88
2021/04/01 02:59:51;;;;;;;6.80;4.80;;;8.80;99.90;;;;;;5032577;28;20791;-88
2021/04/01 03:02:30;;;;;;;;;;;;;;;;;;;;;
2021/04/01 03:05:03;;;;;;;7.07;4.73;;;;;;;;;;5021945;28;20470;-89
2021/04/01 03:07:42;;;;;;;9.40;4.97;;;8.00;99.90;;;;;;5025247;28;20468;-90
2021/04/01 03:10:13;;;;;;;10.07;5.43;;;8.50;99.90;;;;;;5025197;28;20466;-90
2021/04/01 03:12:42;;;;;;;6.43;4.77;;;9.10;99.90;;;;;;5021703;28;20448;-89
2021/04/01 03:15:13;;;;;;;5.90;5.23;;;7.20;99.90;;;;;;5021738;28;20761;-89
2021/04/01 03:17:43;;;;;;;9.00;5.00;;;8.60;99.90;;;;;;5023526;28;20498;-90
2021/04/01 03:20:13;;;;;;;7.83;5.33;;;8.50;99.90;;;;;;5017322;28;20482;-91
2021/04/01 03:22:41;;;;;;;6.40;5.17;;;8.60;99.90;;;;;;5024189;28;20491;-92
2021/04/01 03:25:09;;;;;;;8.23;4.80;;;8.60;99.90;;;;;;5030297;28;20446;-90
2021/04/01 03:27:37;;;;;;;7.73;4.90;;;8.50;99.90;;;;;;5029006;28;20470;-93
2021/04/01 03:30:06;;;;;;;6.60;5.50;;;8.50;99.90;;;;;;5030837;28;20481;-91
2021/04/01 03:32:33;;;;;;;8.07;5.60;;;8.50;99.90;;;;;;5032542;28;20443;-91
2021/04/01 03:35:00;;;;;;;7.73;5.40;;;8.40;99.90;;;;;;5032601;28;20439;-90
2021/04/01 03:37:26;;;;;;;7.07;5.30;;;8.40;99.90;;;;;;5032674;28;20461;-90
2021/04/01 03:39:53;;;;;;;8.60;5.50;;;8.40;99.90;;;;;;5033371;28;20525;-92
2021/04/01 03:42:20;;;;;;;8.20;6.10;;;8.40;99.90;;;;;;5032672;28;20609;-89
2021/04/01 03:44:47;;;;;;;8.20;4.30;;;;;;;;;;5031565;28;20521;-90
2021/04/01 03:47:13;;;;;;;7.67;5.43;;;8.40;99.90;;;;;;5033093;28;20444;-91
2021/04/01 03:49:40;;;;;;;8.73;5.60;;;8.40;99.90;;;;;;5032666;28;20538;-89
2021/04/01 03:52:06;;;;;;;8.70;4.50;;;8.30;99.90;;;;;;5032736;28;20451;-90
2021/04/01 03:54:33;;;;;;;8.37;4.73;;;8.30;99.90;;;;;;5032993;28;20456;-91
2021/04/01 03:57:01;;;;;;;8.50;4.97;;;8.30;99.90;;;;;;5031608;28;20448;-92
2021/04/01 03:59:30;;;;;;;9.43;4.90;;;8.20;99.90;;;;;;5031661;28;20463;-91
2021/04/01 04:02:22;;;;;;;9.83;5.60;;;;;;;;;;5032397;28;21017;-90
2021/04/01 04:07:52;;;;;;;6.73;5.23;;;8.20;99.90;;;;;;5035105;28;20443;-93
2021/04/01 04:10:36;;;;;;;9.37;5.10;;;8.20;99.90;;;;;;5036656;28;20455;-90
2021/04/01 04:13:11;;;;;;;10.00;5.43;;;8.20;99.90;;;;;;5031912;28;20559;-91
2021/04/01 04:15:38;;;;;;;10.53;6.20;;;8.20;99.90;;;;;;5015520;28;20447;-90
2021/04/01 04:18:05;;;;;;;8.53;5.70;;;8.10;99.90;;;;;;5016659;28;20455;-90
2021/04/01 04:20:35;;;;;;;10.40;4.93;;;;;;;;;;5023439;28;20481;-89
2021/04/01 04:23:04;;;;;;;6.73;5.03;;;8.20;99.90;;;;;;5026991;28;20487;-92
2021/04/01 04:25:30;;;;;;;8.33;5.63;;;8.10;99.90;;;;;;5026286;28;20456;-89
2021/04/01 04:28:06;;;;;;;7.70;4.90;;;8.10;99.90;;;;;;5030606;28;20954;-89
2021/04/01 04:30:34;;;;;;;7.57;5.40;;;8.10;99.90;;;;;;5035175;28;20447;-90
2021/04/01 04:33:02;;;;;;;10.00;5.27;;;;;;;;;;5030951;28;20446;-91
2021/04/01 04:35:31;;;;;;;9.33;6.30;;;8.00;99.90;;;;;;5030667;28;20519;-90
2021/04/01 04:37:58;;;;;;;7.60;5.70;;;8.00;99.90;;;;;;5030652;28;20493;-91
2021/04/01 04:40:25;;;;;;;8.97;5.80;;;;;;;;;;5023383;28;20440;-91
2021/04/01 04:42:54;;;;;;;7.73;5.20;;;;;;;;;;5021730;28;20483;-91
2021/04/01 04:45:28;;;;;;;7.80;5.90;;;8.20;99.90;;;;;;5021451;28;20567;-88
2021/04/01 04:48:02;;;;;;;8.17;5.00;;;8.80;99.90;;;;;;5027162;28;20439;-89
2021/04/01 04:50:31;;;;;;;12.50;5.43;;;;;;;;;;5023091;28;20440;-90
2021/04/01 04:52:58;;;;;;;10.20;6.20;;;8.40;99.90;;;;;;5018908;28;20468;-88
2021/04/01 04:55:25;;;;;;;10.17;5.60;;;8.40;99.90;;;;;;5016176;28;20452;-89
2021/04/01 04:57:54;;;;;;;8.50;5.10;;;8.40;99.90;;;;;;5016301;28;20456;-88
2021/04/01 05:00:48;;;;;;;8.80;6.83;;;8.50;99.90;;;;;;5014873;28;20455;-87
2021/04/01 05:06:00;;;;;;;8.33;6.10;;;8.40;99.90;;;;;;5015345;28;20446;-87
2021/04/01 05:08:27;;;;;;;9.63;5.63;;;8.40;99.90;;;;;;5015306;28;20448;-87
2021/04/01 05:10:53;;;;;;;7.20;5.53;;;8.50;99.90;;;;;;5015231;28;20453;-88
2021/04/01 05:13:20;;;;;;;12.10;5.77;;;8.50;99.90;;;;;;5016069;28;20811;-89
2021/04/01 05:15:54;;;;;;;8.63;6.20;;;8.50;99.90;;;;;;4994245;28;20477;-89
2021/04/01 05:18:27;;;;;;;12.20;5.67;;;8.40;99.90;;;;;;4994189;28;20446;-88
2021/04/01 05:20:55;;;;;;;9.63;5.80;;;8.40;99.90;;;;;;4993412;28;20520;-89
2021/04/01 05:23:27;;;;;;;12.27;5.80;;;8.40;99.90;;;;;;4990276;28;20497;-88
2021/04/01 05:26:07;;;;;;;7.27;5.00;;;8.40;99.90;;;;;;4991762;28;20560;-87
2021/04/01 05:28:34;;;;;;;9.43;6.10;;;8.50;99.90;;;;;;4993519;28;20553;-88
2021/04/01 05:31:03;;;;;;;12.80;5.93;;;8.50;99.90;;;;;;4994550;28;20453;-88
2021/04/01 05:33:32;;;;;;;11.40;5.93;;;8.60;99.90;;;;;;5001570;28;20559;-88
2021/04/01 05:36:00;;;;;;;12.40;6.87;;;8.60;99.90;;;;;;5016540;28;20480;-89
2021/04/01 05:38:26;;;;;;;7.87;6.37;;;8.70;99.90;;;;;;5017503;28;20495;-88
2021/04/01 05:40:53;;;;;;;15.73;6.10;;;8.80;99.90;;;;;;5011665;28;20437;-88
2021/04/01 05:43:22;;;;;;;8.87;5.83;;;8.90;99.90;;;;;;5015496;28;20492;-89
2021/04/01 05:45:51;;;;;;;11.13;5.77;;;9.00;99.90;;;;;;5015136;28;20448;-87
2021/04/01 05:48:25;;;;;;;10.90;6.40;;;9.10;99.90;;;;;;5017104;28;20463;-88
2021/04/01 05:51:14;;;;;;;16.13;6.03;;;9.30;99.90;;;;;;5019889;28;20456;-89
2021/04/01 05:54:27;;;;;;;13.30;5.80;;;9.40;99.90;;;;;;5021608;28;20516;-89
2021/04/01 05:59:47;;;;;;;13.60;6.97;;;9.50;99.90;;;;;;4988188;28;20806;-87
2021/04/01 06:02:23;;;;;;;10.30;5.70;;;9.70;99.90;;;;;;5017983;28;20487;-85
2021/04/01 06:04:58;;;;;;;12.20;6.20;;;9.90;99.90;;;;;;5018872;28;20488;-91
2021/04/01 06:07:37;;;;;;;15.60;6.50;;;9.90;99.90;;;;;;5022994;28;20440;-88
2021/04/01 06:10:04;;;;;;;10.67;6.80;;;10.00;99.90;;;;;;5022716;28;20958;-88
2021/04/01 06:12:32;;;;;;;11.17;6.37;;;10.10;99.90;;;;;;5027290;28;20443;-87
2021/04/01 06:15:01;;;;;;;18.43;6.20;;;10.10;99.90;;;;;;5034991;28;20444;-87
2021/04/01 06:17:29;;;;;;;11.93;6.37;;;10.20;99.90;;;;;;5035120;28;20502;-88
2021/04/01 06:19:58;;;;;;;11.47;6.00;;;10.30;99.90;;;;;;5035897;28;20476;-89
2021/04/01 06:22:26;;;;;;;10.70;6.13;;;10.40;99.90;;;;;;5035331;28;20514;-89
2021/04/01 06:24:54;;;;;;;14.43;6.40;;;10.80;99.90;;;;;;5035339;28;20440;-88
2021/04/01 06:27:25;;;;;;;12.33;6.40;;;11.10;99.90;;;;;;5033848;28;20789;-87
2021/04/01 06:32:39;;;;;;;10.10;6.90;;;12.00;99.90;;;;;;5030411;28;20515;-89
2021/04/01 06:35:21;;;;;;;10.33;6.90;;;12.80;99.90;;;;;;5033174;28;20517;-91
2021/04/01 06:40:45;;;;;;;14.73;6.97;;;13.80;99.90;;;;;;5033983;28;20933;-89
2021/04/01 06:43:23;;;;;;;13.60;7.50;;;14.60;99.20;;;;;;5034399;28;20474;-92
2021/04/01 06:45:54;;;;;;;7.87;6.90;;;14.80;97.10;;;;;;5033732;28;20455;-91
2021/04/01 06:48:23;;;;;;;14.93;6.93;;;15.60;95.20;;;;;;5031334;28;20452;-89
2021/04/01 06:50:57;;;;;;;12.90;6.73;;;15.90;93.80;;;;;;5033620;28;20542;-88
2021/04/01 06:53:34;;;;;;;9.73;6.53;;;16.50;93.00;;;;;;5034613;28;20454;-91
2021/04/01 06:56:07;;;;;;;14.63;6.77;;;16.70;92.30;;;;;;5034303;28;20459;-89
2021/04/01 06:58:42;;;;;;;12.00;6.67;;;17.10;91.10;;;;;;5035079;28;21010;-91
2021/04/01 07:01:13;;;;;;;12.97;6.90;;;17.60;90.90;;;;;;5033521;28;20466;-90
2021/04/01 07:03:47;;;;;;;20.57;6.87;;;17.90;89.80;;;;;;5032748;28;20447;-91
2021/04/01 07:06:23;;;;;;;19.80;7.70;;;18.10;90.00;;;;;;5035615;28;20545;-92
2021/04/01 07:08:56;;;;;;;13.87;6.47;;;17.80;90.20;;;;;;5034863;28;20993;-93
2021/04/01 07:11:31;;;;;;;14.00;6.60;;;18.20;89.00;;;;;;5035821;28;20646;-91
2021/04/01 07:14:03;;;;;;;12.57;6.43;;;18.20;88.80;;;;;;5034528;28;21162;-92
2021/04/01 07:16:40;;;;;;;12.53;5.80;;;18.50;87.40;;;;;;5036508;28;20451;-93
2021/04/01 07:19:25;;;;;;;8.27;6.43;;;18.90;86.60;;;;;;5037509;28;20533;-92
2021/04/01 07:47:12;;;;;;;14.53;5.17;;;22.20;74.10;;;;;;5020164;28;20462;-92
2021/04/01 07:49:45;;;;;;;12.37;4.37;;;22.40;73.20;;;;;;5018994;28;20448;-92
2021/04/01 07:52:13;;;;;;;5.77;4.00;;;22.70;70.60;;;;;;5018319;28;20468;-94
2021/04/01 07:54:53;;;;;;;8.73;3.90;;;22.40;71.00;;;;;;5019342;28;20525;-92
2021/04/01 07:57:57;;;;;;;8.03;4.17;;;23.20;72.70;;;;;;5018766;28;20880;-93
2021/04/01 08:00:29;;;;;;;7.43;4.33;;;23.70;71.40;;;;;;5017993;28;20550;-94
2021/04/01 08:03:04;;;;;;;3.53;3.23;;;;;;;;;;5019078;28;20499;-93
2021/04/01 08:05:33;;;;;;;3.17;2.33;;;23.50;68.60;;;;;;5018606;28;20456;-91
2021/04/01 08:08:05;;;;;;;6.97;2.73;;;23.10;67.80;;;;;;5017500;28;20476;-91
2021/04/01 08:10:36;;;;;;;6.47;3.60;;;22.90;70.00;;;;;;5014762;28;20539;-92
2021/04/01 08:13:06;;;;;;;5.70;2.70;;;;;;;;;;5019134;28;20809;-91
2021/04/01 08:15:40;;;;;;;3.00;2.70;;;23.20;67.00;;;;;;5019296;28;20464;-92
2021/04/01 08:18:22;;;;;;;3.53;2.40;;;;;;;;;;5021255;28;20476;-91
2021/04/01 08:20:53;;;;;;;4.40;2.90;;;23.40;70.70;;;;;;5021664;28;20472;-93
2021/04/01 08:23:22;;;;;;;4.97;3.07;;;;;;;;;;5030603;28;20525;-91
2021/04/01 08:25:55;;;;;;;5.10;2.83;;;22.60;67.20;;;;;;5039203;28;20447;-90
2021/04/01 08:28:33;;;;;;;6.63;2.87;;;23.10;70.20;;;;;;5042774;28;20490;-88
2021/04/01 08:31:32;;;;;;;4.53;2.83;;;;;;;;;;5013525;28;20451;-93
2021/04/01 08:34:11;;;;;;;6.70;2.60;;;;;;;;;;5045181;28;20431;-89
2021/04/01 08:36:46;;;;;;;3.53;3.00;;;23.70;67.20;;;;;;5041673;28;20976;-90
2021/04/01 08:39:13;;;;;;;3.77;2.80;;;23.80;63.30;;;;;;5039867;28;20469;-92
2021/04/01 08:42:16;;;;;;;3.20;2.60;;;23.90;60.00;;;;;;5035563;28;20471;-91
2021/04/01 08:45:02;;;;;;;2.73;2.47;;;23.90;75.70;;;;;;5039181;28;20439;-92
2021/04/01 08:47:36;;;;;;;6.07;2.90;;;23.70;61.80;;;;;;5036235;28;20542;-90
2021/04/01 08:50:23;;;;;;;5.97;2.97;;;23.40;79.20;;;;;;5036460;28;20436;-88
2021/04/01 08:53:18;;;;;;;6.40;2.87;;;23.60;77.50;;;;;;5041336;28;20466;-91
2021/04/01 08:55:52;;;;;;;3.07;2.73;;;23.90;87.30;;;;;;5038451;28;20453;-93
2021/04/01 08:58:26;;;;;;;4.13;3.13;;;23.50;68.70;;;;;;5018295;28;20455;-91
2021/04/01 09:01:12;;;;;;;4.70;2.97;;;23.50;85.60;;;;;;5037843;28;20846;-91
2021/04/01 09:03:40;;;;;;;4.80;2.90;;;22.70;62.90;;;;;;5027149;28;20968;-91
2021/04/01 09:06:10;;;;;;;6.00;3.20;;;22.40;86.90;;;;;;5031031;28;20474;-89
2021/04/01 09:08:39;;;;;;;6.90;3.20;;;22.60;82.20;;;;;;5037734;28;20440;-89
2021/04/01 09:11:06;;;;;;;3.50;3.20;;;;;;;;;;5040042;28;20436;-89
2021/04/01 09:13:34;;;;;;;5.30;3.50;;;23.60;79.50;;;;;;5040278;28;20456;-91
2021/04/01 09:16:08;;;;;;;3.60;2.80;;;23.40;63.80;;;;;;5039155;28;20440;-90
2021/04/01 09:18:37;;;;;;;4.20;2.80;;;24.10;62.10;;;;;;5038641;28;20490;-91
2021/04/01 09:21:05;;;;;;;6.00;3.17;;;23.90;69.00;;;;;;5038460;28;20479;-92
2021/04/01 09:23:33;;;;;;;5.13;2.90;;;23.40;86.20;;;;;;5039538;28;20548;-91
2021/04/01 09:26:00;;;;;;;2.90;2.60;;;;;;;;;;5040780;28;20927;-92
2021/04/01 09:28:32;;;;;;;4.40;3.10;;;24.00;78.00;;;;;;5040655;28;20542;-89
2021/04/01 09:31:02;;;;;;;8.23;3.00;;;24.20;62.20;;;;;;5035913;28;20866;-91
2021/04/01 09:33:31;;;;;;;3.67;3.07;;;24.10;61.80;;;;;;5039739;28;20439;-90
2021/04/01 09:36:12;;;;;;;4.67;3.10;;;24.00;62.10;;;;;;5040164;28;20502;-92
2021/04/01 09:38:40;;;;;;;6.70;2.90;;;23.40;80.50;;;;;;5039945;28;20444;-92
2021/04/01 09:41:07;;;;;;;7.87;3.50;;;;;;;;;;5040926;28;20467;-92
2021/04/01 09:43:34;;;;;;;5.03;2.90;;;23.50;64.10;;;;;;5035133;28;20490;-87
2021/04/01 09:46:13;;;;;;;4.37;2.90;;;23.40;63.80;;;;;;5033916;28;20444;-89
2021/04/01 09:48:46;;;;;;;5.87;3.10;;;23.60;66.60;;;;;;5035907;28;20451;-87
2021/04/01 09:51:17;;;;;;;3.40;2.80;;;24.20;61.60;;;;;;5037821;28;20443;-91
2021/04/01 09:53:51;;;;;;;3.93;3.10;;;25.10;61.40;;;;;;5035890;28;20972;-87
2021/04/01 09:56:25;;;;;;;8.57;4.27;;;26.10;82.70;;;;;;5034397;28;20452;-90
2021/04/01 09:58:53;;;;;;;8.57;5.10;;;25.80;79.50;;;;;;5032695;28;20466;-86
2021/04/01 10:01:30;;;;;;;10.07;6.17;;;26.10;81.70;;;;;;5030471;28;20494;-89
2021/04/01 10:04:04;;;;;;;7.10;4.70;;;25.60;59.70;;;;;;5040138;28;20450;-92
2021/04/01 10:06:37;;;;;;;9.80;5.20;;;25.70;82.90;;;;;;5036869;28;20471;-90
2021/04/01 10:09:08;;;;;;;7.00;4.40;;;25.40;62.20;;;;;;5039363;28;20447;-90
2021/04/01 10:11:39;;;;;;;11.50;5.43;;;26.10;60.30;;;;;;5037429;28;20501;-90
2021/04/01 10:14:07;;;;;;;18.73;5.53;;;26.00;60.90;;;;;;5034755;28;20451;-86
2021/04/01 10:16:36;;;;;;;8.07;4.60;;;26.40;60.90;;;;;;5033269;28;20505;-91
2021/04/01 10:19:03;;;;;;;9.10;4.53;;;27.40;59.00;;;;;;5033802;28;20949;-91
2021/04/01 10:21:30;;;;;;;8.60;5.00;;;27.60;56.20;;;;;;5033164;28;20487;-87
2021/04/01 10:23:58;;;;;;;12.83;5.00;;;27.70;54.90;;;;;;5032796;28;20447;-87
2021/04/01 10:26:30;;;;;;;6.20;5.03;;;27.40;55.10;;;;;;5033217;28;20459;-92
2021/04/01 10:29:01;;;;;;;5.93;4.57;;;26.80;55.70;;;;;;5032735;28;20466;-86
2021/04/01 10:31:28;;;;;;;9.40;4.20;;;26.90;57.80;;;;;;5034218;28;20439;-87
2021/04/01 10:34:14;;;;;;;9.53;4.60;;;27.80;55.50;;;;;;5033974;28;20452;-90
2021/04/01 10:36:41;;;;;;;7.97;4.43;;;25.90;56.20;;;;;;5034157;28;20459;-93
2021/04/01 10:39:10;;;;;;;5.23;4.17;;;26.80;58.00;;;;;;5033249;28;20440;-88
2021/04/01 10:41:46;;;;;;;9.90;4.77;;;27.50;56.70;;;;;;5032833;28;20475;-85
2021/04/01 10:44:14;;;;;;;12.37;5.20;;;28.00;68.90;;;;;;5031726;28;20487;-87
2021/04/01 10:46:46;;;;;;;6.40;4.37;;;27.80;54.10;;;;;;5033593;28;20870;-86
2021/04/01 10:49:14;;;;;;;6.30;3.90;;;27.20;54.10;;;;;;5030264;28;20525;-86
2021/04/01 10:51:48;;;;;;;6.70;4.90;;;27.20;54.60;;;;;;5032755;28;20489;-86
2021/04/01 10:54:15;;;;;;;6.97;4.40;;;27.60;55.40;;;;;;5032672;28;20531;-89
2021/04/01 10:56:50;;;;;;;12.63;5.07;;;27.30;76.10;;;;;;5032813;28;20444;-89
2021/04/01 10:59:16;;;;;;;23.90;10.87;;;27.50;56.30;;;;;;5031984;28;20458;-87
2021/04/01 11:01:44;;;;;;;7.63;3.80;;;27.80;56.60;;;;;;5031959;28;20448;-90
2021/04/01 11:04:13;;;;;;;3.60;2.30;;;26.70;52.50;;;;;;5032880;28;20446;-84
2021/04/01 11:06:41;;;;;;;6.10;2.57;;;26.70;53.10;;;;;;5032330;28;20801;-89
2021/04/01 11:09:10;;;;;;;5.80;3.00;;;26.10;52.40;;;;;;5032302;28;20459;-86
2021/04/01 11:11:51;;;;;;;4.43;2.50;;;27.10;53.80;;;;;;5032135;28;20466;-85
2021/04/01 11:14:18;;;;;;;4.73;2.60;;;27.70;53.30;;;;;;5031313;28;20959;-85
2021/04/01 11:16:47;;;;;;;4.10;2.50;;;28.10;53.90;;;;;;5032804;28;20448;-87
2021/04/01 11:19:19;;;;;;;5.13;2.60;;;28.20;52.30;;;;;;4973797;28;20938;-92
2021/04/01 11:21:46;;;;;;;3.93;2.53;;;28.00;72.30;;;;;;4973720;28;20473;-90
2021/04/01 11:24:13;;;;;;;2.97;2.50;;;28.00;73.10;;;;;;4975193;28;20545;-93
2021/04/01 11:26:40;;;;;;;2.30;2.10;;;28.20;50.90;;;;;;4970033;28;20450;-89
2021/04/01 11:29:13;;;;;;;5.13;2.23;;;28.40;49.10;;;;;;4971290;28;20505;-87
2021/04/01 11:31:41;;;;;;;2.80;2.50;;;27.60;72.70;;;;;;4972470;28;20972;-87
2021/04/01 11:34:09;;;;;;;4.03;2.50;;;27.80;51.10;;;;;;4972858;28;20942;-92
2021/04/01 11:36:39;;;;;;;4.30;2.60;;;27.40;72.20;;;;;;4978027;28;20454;-91
2021/04/01 11:39:24;;;;;;;10.43;2.60;;;27.30;51.80;;;;;;5033001;28;20542;-86
2021/04/01 11:41:56;;;;;;;6.13;2.70;;;26.70;51.00;;;;;;5032865;28;20451;-91
2021/04/01 11:44:23;;;;;;;8.63;2.87;;;;;;;;;;5034755;28;21002;-93
2021/04/01 11:46:49;;;;;;;4.40;2.53;;;26.60;52.10;;;;;;5034588;28;20444;-86
2021/04/01 11:49:16;;;;;;;6.17;2.40;;;26.10;53.30;;;;;;5032415;28;20809;-86
2021/04/01 11:51:43;;;;;;;2.87;2.30;;;25.50;76.30;;;;;;5031810;28;20451;-85
2021/04/01 11:54:11;;;;;;;3.20;2.80;;;25.50;55.00;;;;;;5031736;28;20918;-88
2021/04/01 11:56:38;;;;;;;3.63;2.23;;;26.00;56.50;;;;;;5031338;28;20452;-84
2021/04/01 11:59:08;;;;;;;2.50;2.00;;;27.40;64.60;;;;;;5029522;28;20448;-87
2021/04/01 12:01:37;;;;;;;6.90;2.90;;;26.70;62.70;;;;;;5032480;28;20497;-85
2021/04/01 12:04:08;;;;;;;4.03;2.63;;;26.20;65.10;;;;;;5034293;28;20450;-90
2021/04/01 12:06:36;;;;;;;4.20;2.30;;;;;;;;;;5033926;28;20537;-92
2021/04/01 12:09:04;;;;;;;2.53;2.20;;;27.10;74.50;;;;;;5027664;28;20432;-89
2021/04/01 12:11:39;;;;;;;3.40;2.20;;;27.20;50.20;;;;;;5032416;28;20462;-88
2021/04/01 12:14:07;;;;;;;4.70;2.60;;;27.30;52.80;;;;;;5031838;28;20926;-90
2021/04/01 12:16:34;;;;;;;4.07;2.13;;;27.30;62.30;;;;;;5031340;28;20439;-92
2021/04/01 12:19:01;;;;;;;2.77;2.40;;;27.50;50.90;;;;;;5029988;28;20478;-91
2021/04/01 12:21:28;;;;;;;3.20;1.93;;;27.50;63.50;;;;;;5032215;28;20528;-89
2021/04/01 12:23:56;;;;;;;3.10;2.40;;;28.20;50.10;;;;;;5033289;28;20494;-90
2021/04/01 12:26:29;;;;;;;3.07;2.20;;;27.80;73.10;;;;;;5035236;28;20939;-88
2021/04/01 12:28:56;;;;;;;3.33;2.50;;;28.20;63.40;;;;;;5032006;28;20474;-89
2021/04/01 12:31:29;;;;;;;4.53;2.43;;;27.20;78.50;;;;;;5036084;28;20456;-92
2021/04/01 12:33:55;;;;;;;2.40;2.23;;;28.00;69.00;;;;;;5035866;28;20463;-89
2021/04/01 12:36:30;;;;;;;2.33;2.00;;;27.80;56.10;;;;;;5035751;28;20783;-89
2021/04/01 12:38:57;;;;;;;8.00;2.77;;;28.20;64.60;;;;;;5036043;28;20447;-90
2021/04/01 12:41:26;;;;;;;2.20;2.00;;;28.70;50.50;;;;;;5037342;28;20451;-92
2021/04/01 12:43:53;;;;;;;10.67;2.87;;;28.20;50.10;;;;;;5034977;28;20502;-91
2021/04/01 12:46:20;;;;;;;5.50;2.67;;;27.90;64.80;;;;;;5036210;28;20447;-89
2021/04/01 12:48:48;;;;;;;5.60;2.87;;;28.40;75.40;;;;;;5035681;28;20459;-89
2021/04/01 12:51:20;;;;;;;3.70;2.27;;;28.60;65.70;;;;;;5035423;28;20926;-89
2021/04/01 12:54:00;;;;;;;3.37;2.80;;;27.60;73.70;;;;;;5035037;28;20460;-88
2021/04/01 12:56:31;;;;;;;4.23;3.10;;;27.80;52.10;;;;;;5034722;28;20534;-89
2021/04/01 12:59:01;;;;;;;6.80;3.00;;;27.70;68.70;;;;;;5033649;28;20463;-88
2021/04/01 13:01:30;;;;;;;8.70;3.00;;;;;;;;;;5033930;28;20475;-90
2021/04/01 13:04:00;;;;;;;3.90;3.03;;;;;;;;;;5015500;28;20527;-88
2021/04/01 13:06:34;;;;;;;6.10;3.10;;;28.10;61.70;;;;;;5015407;28;20476;-90
2021/04/01 13:09:12;;;;;;;6.80;3.10;;;;;;;;;;5015712;28;20966;-88
2021/04/01 13:11:39;;;;;;;3.73;3.43;;;27.90;50.60;;;;;;5015717;28;20456;-91
2021/04/01 13:14:05;;;;;;;3.10;2.90;;;27.90;65.70;;;;;;4996219;28;20459;-91
2021/04/01 13:16:32;;;;;;;4.93;3.20;;;;;;;;;;5015493;28;20452;-87
2021/04/01 13:18:59;;;;;;;3.23;2.37;;;;;;;;;;5014833;28;20440;-87
2021/04/01 13:21:52;;;;;;;6.83;3.03;;;26.50;59.00;;;;;;5014734;28;20477;-89
2021/04/01 13:24:26;;;;;;;7.60;3.03;;;25.80;53.60;;;;;;5015201;28;20471;-90
2021/04/01 13:26:54;;;;;;;4.60;2.90;;;26.10;56.40;;;;;;5015406;28;20989;-90
2021/04/01 13:29:23;;;;;;;5.10;2.60;;;25.60;71.60;;;;;;5023111;28;20515;-91
2021/04/01 13:31:51;;;;;;;7.27;2.97;;;;;;;;;;5020386;28;20441;-89
2021/04/01 13:34:22;;;;;;;6.63;3.07;;;;;;;;;;5024937;28;21004;-88
2021/04/01 13:36:56;;;;;;;6.73;3.20;;;25.20;71.20;;;;;;5032033;28;20515;-87
2021/04/01 13:39:24;;;;;;;4.53;2.70;;;24.70;70.40;;;;;;5027789;28;20447;-89
2021/04/01 13:42:02;;;;;;;6.57;2.93;;;;;;;;;;5023345;28;20654;-89
2021/04/01 13:44:33;;;;;;;6.20;3.07;;;24.20;69.60;;;;;;5029196;28;20444;-90
2021/04/01 13:47:00;;;;;;;7.30;3.47;;;24.20;55.40;;;;;;5034885;28;20447;-89
2021/04/01 13:49:28;;;;;;;11.50;3.33;;;23.60;60.00;;;;;;5034341;28;20494;-90
2021/04/01 13:51:58;;;;;;;4.10;3.30;;;;;;;;;;5033231;28;21018;-88
2021/04/01 13:54:36;;;;;;;4.33;3.37;;;;;;;;;;5034991;28;20443;-85
2021/04/01 13:57:14;;;;;;;5.87;3.40;;;23.80;83.00;;;;;;5034322;28;20939;-93
2021/04/01 14:00:06;;;;;;;4.77;3.43;;;23.70;57.60;;;;;;5033662;28;20513;-87
2021/04/01 14:11:08;;;;;;;7.53;3.40;;;24.70;74.80;;;;;;4975714;28;20797;-86
2021/04/01 14:13:36;;;;;;;6.97;3.70;;;24.50;71.00;;;;;;4975610;28;20456;-91